sensor_id;sensor_type;location;lat;lon;timestamp;P1;durP1;ratioP1;P2;durP2;ratioP2
74791;SDS011;63319;46.046;17.802;2023-05-10T00:01:47;5.18;;;2.15;;
74791;SDS011;63319;46.046;17.802;2023-05-10T00:04:50;4.23;;;1.70;;
74791;SDS011;63319;46.046;17.802;2023-05-10T00:07:53;3.97;;;2.00;;
74791;SDS011;63319;46.046;17.802;2023-05-10T00:10:56;4.05;;;1.73;;
74791;SDS011;63319;46.046;17.802;2023-05-10T00:13:59;3.83;;;2.10;;
74791;SDS011;63319;46.046;17.802;2023-05-10T00:17:01;3.40;;;1.70;;
74791;SDS011;63319;46.046;17.802;2023-05-10T00:20:05;3.37;;;1.80;;
74791;SDS011;63319;46.046;17.802;2023-05-10T00:23:08;4.20;;;2.00;;
74791;SDS011;63319;46.046;17.802;2023-05-10T00:26:11;3.85;;;1.73;;
74791;SDS011;63319;46.046;17.802;2023-05-10T00:29:17;4.25;;;1.90;;
74791;SDS011;63319;46.046;17.802;2023-05-10T00:32:20;4.32;;;2.08;;
74791;SDS011;63319;46.046;17.802;2023-05-10T00:35:23;3.63;;;1.80;;
74791;SDS011;63319;46.046;17.802;2023-05-10T00:38:26;3.90;;;1.75;;
74791;SDS011;63319;46.046;17.802;2023-05-10T00:41:29;3.67;;;1.70;;
74791;SDS011;63319;46.046;17.802;2023-05-10T00:44:36;3.75;;;1.80;;
74791;SDS011;63319;46.046;17.802;2023-05-10T00:47:40;4.88;;;1.85;;
74791;SDS011;63319;46.046;17.802;2023-05-10T00:50:43;4.17;;;1.70;;
74791;SDS011;63319;46.046;17.802;2023-05-10T00:53:47;3.83;;;1.40;;
74791;SDS011;63319;46.046;17.802;2023-05-10T00:56:51;3.05;;;1.48;;
74791;SDS011;63319;46.046;17.802;2023-05-10T00:59:54;4.07;;;2.22;;
74791;SDS011;63319;46.046;17.802;2023-05-10T01:02:57;3.67;;;1.60;;
74791;SDS011;63319;46.046;17.802;2023-05-10T01:06:00;4.20;;;2.10;;
74791;SDS011;63319;46.046;17.802;2023-05-10T01:09:03;3.70;;;1.83;;
74791;SDS011;63319;46.046;17.802;2023-05-10T01:12:06;3.58;;;1.80;;
74791;SDS011;63319;46.046;17.802;2023-05-10T01:15:09;3.90;;;1.52;;
74791;SDS011;63319;46.046;17.802;2023-05-10T01:18:13;3.30;;;1.50;;
74791;SDS011;63319;46.046;17.802;2023-05-10T01:34:47;3.55;;;1.80;;
74791;SDS011;63319;46.046;17.802;2023-05-10T01:38:04;3.83;;;1.60;;
74791;SDS011;63319;46.046;17.802;2023-05-10T01:41:28;3.53;;;1.98;;
74791;SDS011;63319;46.046;17.802;2023-05-10T01:44:54;4.15;;;1.70;;
74791;SDS011;63319;46.046;17.802;2023-05-10T01:48:13;3.90;;;1.63;;
74791;SDS011;63319;46.046;17.802;2023-05-10T01:51:19;4.57;;;1.77;;
74791;SDS011;63319;46.046;17.802;2023-05-10T01:54:25;3.13;;;1.50;;
74791;SDS011;63319;46.046;17.802;2023-05-10T01:57:32;3.38;;;1.65;;
74791;SDS011;63319;46.046;17.802;2023-05-10T02:00:37;4.45;;;1.88;;
74791;SDS011;63319;46.046;17.802;2023-05-10T02:03:44;3.42;;;1.40;;
74791;SDS011;63319;46.046;17.802;2023-05-10T02:06:48;3.83;;;1.55;;
74791;SDS011;63319;46.046;17.802;2023-05-10T02:09:54;4.93;;;1.40;;
74791;SDS011;63319;46.046;17.802;2023-05-10T02:12:58;3.85;;;1.90;;
74791;SDS011;63319;46.046;17.802;2023-05-10T02:16:02;2.80;;;1.50;;
74791;SDS011;63319;46.046;17.802;2023-05-10T02:19:07;3.00;;;1.50;;
74791;SDS011;63319;46.046;17.802;2023-05-10T02:22:12;4.22;;;1.65;;
74791;SDS011;63319;46.046;17.802;2023-05-10T02:25:17;3.77;;;1.63;;
74791;SDS011;63319;46.046;17.802;2023-05-10T02:28:23;3.30;;;1.40;;
74791;SDS011;63319;46.046;17.802;2023-05-10T02:31:27;3.03;;;1.50;;
74791;SDS011;63319;46.046;17.802;2023-05-10T02:34:30;3.75;;;1.77;;
74791;SDS011;63319;46.046;17.802;2023-05-10T02:37:34;3.33;;;1.65;;
74791;SDS011;63319;46.046;17.802;2023-05-10T02:40:41;3.50;;;1.53;;
74791;SDS011;63319;46.046;17.802;2023-05-10T02:43:45;3.50;;;1.60;;
74791;SDS011;63319;46.046;17.802;2023-05-10T02:46:49;3.47;;;1.67;;
74791;SDS011;63319;46.046;17.802;2023-05-10T02:49:52;3.35;;;1.70;;
74791;SDS011;63319;46.046;17.802;2023-05-10T02:52:56;2.80;;;1.20;;
74791;SDS011;63319;46.046;17.802;2023-05-10T02:56:04;3.97;;;2.00;;
74791;SDS011;63319;46.046;17.802;2023-05-10T02:59:10;3.40;;;1.77;;
74791;SDS011;63319;46.046;17.802;2023-05-10T03:02:13;4.25;;;1.88;;
74791;SDS011;63319;46.046;17.802;2023-05-10T03:05:16;4.15;;;2.22;;
74791;SDS011;63319;46.046;17.802;2023-05-10T03:08:19;3.97;;;1.90;;
74791;SDS011;63319;46.046;17.802;2023-05-10T03:18:17;3.42;;;1.60;;
74791;SDS011;63319;46.046;17.802;2023-05-10T03:21:25;3.65;;;1.50;;
74791;SDS011;63319;46.046;17.802;2023-05-10T03:24:32;4.13;;;1.90;;
74791;SDS011;63319;46.046;17.802;2023-05-10T03:27:42;6.40;;;1.60;;
74791;SDS011;63319;46.046;17.802;2023-05-10T03:30:46;2.95;;;1.35;;
74791;SDS011;63319;46.046;17.802;2023-05-10T03:33:50;3.05;;;1.25;;
74791;SDS011;63319;46.046;17.802;2023-05-10T03:36:59;3.97;;;1.70;;
74791;SDS011;63319;46.046;17.802;2023-05-10T03:40:05;3.55;;;1.73;;
74791;SDS011;63319;46.046;17.802;2023-05-10T03:43:11;3.47;;;1.70;;
74791;SDS011;63319;46.046;17.802;2023-05-10T03:46:14;2.78;;;1.30;;
74791;SDS011;63319;46.046;17.802;2023-05-10T03:49:17;4.32;;;1.77;;
74791;SDS011;63319;46.046;17.802;2023-05-10T03:52:20;3.53;;;1.52;;
74791;SDS011;63319;46.046;17.802;2023-05-10T03:55:23;3.33;;;1.70;;
74791;SDS011;63319;46.046;17.802;2023-05-10T03:58:26;3.53;;;1.50;;
74791;SDS011;63319;46.046;17.802;2023-05-10T04:01:29;3.03;;;1.40;;
74791;SDS011;63319;46.046;17.802;2023-05-10T04:04:32;4.63;;;1.92;;
74791;SDS011;63319;46.046;17.802;2023-05-10T04:07:35;2.97;;;1.40;;
74791;SDS011;63319;46.046;17.802;2023-05-10T04:10:38;3.55;;;1.70;;
74791;SDS011;63319;46.046;17.802;2023-05-10T04:13:42;3.40;;;1.63;;
74791;SDS011;63319;46.046;17.802;2023-05-10T04:16:45;3.95;;;1.65;;
74791;SDS011;63319;46.046;17.802;2023-05-10T04:19:48;3.33;;;1.58;;
74791;SDS011;63319;46.046;17.802;2023-05-10T04:22:50;3.13;;;1.45;;
74791;SDS011;63319;46.046;17.802;2023-05-10T04:25:59;4.13;;;1.73;;
74791;SDS011;63319;46.046;17.802;2023-05-10T04:29:05;3.93;;;1.47;;
74791;SDS011;63319;46.046;17.802;2023-05-10T04:32:08;3.15;;;1.70;;
74791;SDS011;63319;46.046;17.802;2023-05-10T04:35:12;2.92;;;1.80;;
74791;SDS011;63319;46.046;17.802;2023-05-10T04:38:17;3.33;;;1.73;;
74791;SDS011;63319;46.046;17.802;2023-05-10T04:41:19;2.53;;;1.38;;
74791;SDS011;63319;46.046;17.802;2023-05-10T04:44:23;2.90;;;1.33;;
74791;SDS011;63319;46.046;17.802;2023-05-10T04:47:31;4.00;;;1.60;;
74791;SDS011;63319;46.046;17.802;2023-05-10T04:50:34;3.40;;;1.70;;
74791;SDS011;63319;46.046;17.802;2023-05-10T04:53:37;3.50;;;1.33;;
74791;SDS011;63319;46.046;17.802;2023-05-10T04:56:40;3.05;;;1.52;;
74791;SDS011;63319;46.046;17.802;2023-05-10T04:59:43;3.27;;;1.53;;
74791;SDS011;63319;46.046;17.802;2023-05-10T05:02:46;4.28;;;1.80;;
74791;SDS011;63319;46.046;17.802;2023-05-10T05:05:49;3.25;;;1.65;;
74791;SDS011;63319;46.046;17.802;2023-05-10T05:08:52;2.65;;;1.48;;
74791;SDS011;63319;46.046;17.802;2023-05-10T05:11:55;3.30;;;1.65;;
74791;SDS011;63319;46.046;17.802;2023-05-10T05:14:58;3.57;;;1.80;;
74791;SDS011;63319;46.046;17.802;2023-05-10T05:18:01;2.88;;;1.48;;
74791;SDS011;63319;46.046;17.802;2023-05-10T05:21:13;3.67;;;1.88;;
74791;SDS011;63319;46.046;17.802;2023-05-10T05:24:17;2.95;;;1.30;;
74791;SDS011;63319;46.046;17.802;2023-05-10T05:27:20;3.20;;;1.50;;
74791;SDS011;63319;46.046;17.802;2023-05-10T05:30:26;3.27;;;1.57;;
74791;SDS011;63319;46.046;17.802;2023-05-10T05:33:29;3.40;;;1.48;;
74791;SDS011;63319;46.046;17.802;2023-05-10T05:36:32;4.45;;;1.92;;
74791;SDS011;63319;46.046;17.802;2023-05-10T05:39:40;3.67;;;1.90;;
74791;SDS011;63319;46.046;17.802;2023-05-10T05:42:43;4.15;;;2.10;;
74791;SDS011;63319;46.046;17.802;2023-05-10T05:45:46;2.97;;;1.30;;
74791;SDS011;63319;46.046;17.802;2023-05-10T05:48:49;3.38;;;1.40;;
74791;SDS011;63319;46.046;17.802;2023-05-10T05:51:52;3.65;;;2.08;;
74791;SDS011;63319;46.046;17.802;2023-05-10T05:54:54;6.15;;;2.67;;
74791;SDS011;63319;46.046;17.802;2023-05-10T05:57:57;4.80;;;2.40;;
74791;SDS011;63319;46.046;17.802;2023-05-10T06:01:00;5.40;;;2.00;;
74791;SDS011;63319;46.046;17.802;2023-05-10T06:04:03;6.65;;;1.95;;
74791;SDS011;63319;46.046;17.802;2023-05-10T06:07:06;3.75;;;1.70;;
74791;SDS011;63319;46.046;17.802;2023-05-10T06:10:12;5.80;;;1.85;;
74791;SDS011;63319;46.046;17.802;2023-05-10T06:13:14;3.80;;;1.90;;
74791;SDS011;63319;46.046;17.802;2023-05-10T06:16:17;5.87;;;1.70;;
74791;SDS011;63319;46.046;17.802;2023-05-10T06:19:20;4.80;;;2.10;;
74791;SDS011;63319;46.046;17.802;2023-05-10T06:22:23;5.55;;;2.10;;
74791;SDS011;63319;46.046;17.802;2023-05-10T06:25:26;5.50;;;2.00;;
74791;SDS011;63319;46.046;17.802;2023-05-10T06:28:28;5.22;;;2.10;;
74791;SDS011;63319;46.046;17.802;2023-05-10T06:31:33;4.03;;;1.90;;
74791;SDS011;63319;46.046;17.802;2023-05-10T06:34:36;4.47;;;2.00;;
74791;SDS011;63319;46.046;17.802;2023-05-10T06:37:39;6.50;;;1.85;;
74791;SDS011;63319;46.046;17.802;2023-05-10T06:40:42;7.45;;;1.92;;
74791;SDS011;63319;46.046;17.802;2023-05-10T06:43:45;3.65;;;1.98;;
74791;SDS011;63319;46.046;17.802;2023-05-10T06:46:48;7.17;;;2.40;;
74791;SDS011;63319;46.046;17.802;2023-05-10T06:49:51;4.97;;;2.08;;
74791;SDS011;63319;46.046;17.802;2023-05-10T06:52:53;4.95;;;2.10;;
74791;SDS011;63319;46.046;17.802;2023-05-10T06:56:17;5.32;;;1.58;;
74791;SDS011;63319;46.046;17.802;2023-05-10T06:59:20;4.40;;;1.60;;
74791;SDS011;63319;46.046;17.802;2023-05-10T07:02:23;4.50;;;1.60;;
74791;SDS011;63319;46.046;17.802;2023-05-10T07:05:26;6.72;;;1.95;;
74791;SDS011;63319;46.046;17.802;2023-05-10T07:08:30;9.02;;;2.15;;
74791;SDS011;63319;46.046;17.802;2023-05-10T07:11:34;6.03;;;2.00;;
74791;SDS011;63319;46.046;17.802;2023-05-10T07:14:37;7.43;;;1.92;;
74791;SDS011;63319;46.046;17.802;2023-05-10T07:17:40;6.17;;;2.00;;
74791;SDS011;63319;46.046;17.802;2023-05-10T07:20:46;8.80;;;1.80;;
74791;SDS011;63319;46.046;17.802;2023-05-10T07:23:48;3.78;;;1.80;;
74791;SDS011;63319;46.046;17.802;2023-05-10T07:26:51;4.43;;;1.95;;
74791;SDS011;63319;46.046;17.802;2023-05-10T07:29:54;7.38;;;2.03;;
74791;SDS011;63319;46.046;17.802;2023-05-10T07:32:58;6.53;;;1.93;;
74791;SDS011;63319;46.046;17.802;2023-05-10T07:36:01;7.13;;;2.15;;
74791;SDS011;63319;46.046;17.802;2023-05-10T07:39:04;4.78;;;2.20;;
74791;SDS011;63319;46.046;17.802;2023-05-10T07:42:07;4.32;;;2.03;;
74791;SDS011;63319;46.046;17.802;2023-05-10T07:45:10;4.95;;;2.65;;
74791;SDS011;63319;46.046;17.802;2023-05-10T07:48:13;6.63;;;2.57;;
74791;SDS011;63319;46.046;17.802;2023-05-10T07:51:16;7.80;;;2.38;;
74791;SDS011;63319;46.046;17.802;2023-05-10T07:54:18;6.55;;;2.30;;
74791;SDS011;63319;46.046;17.802;2023-05-10T07:57:22;9.07;;;2.85;;
74791;SDS011;63319;46.046;17.802;2023-05-10T08:00:25;5.53;;;2.22;;
74791;SDS011;63319;46.046;17.802;2023-05-10T08:03:28;6.83;;;3.30;;
74791;SDS011;63319;46.046;17.802;2023-05-10T08:06:31;5.75;;;2.92;;
74791;SDS011;63319;46.046;17.802;2023-05-10T08:09:33;6.13;;;2.95;;
74791;SDS011;63319;46.046;17.802;2023-05-10T08:12:36;5.70;;;2.65;;
74791;SDS011;63319;46.046;17.802;2023-05-10T08:15:40;10.13;;;3.13;;
74791;SDS011;63319;46.046;17.802;2023-05-10T08:18:43;4.33;;;2.20;;
74791;SDS011;63319;46.046;17.802;2023-05-10T08:21:50;5.85;;;2.70;;
74791;SDS011;63319;46.046;17.802;2023-05-10T08:24:53;7.32;;;2.63;;
74791;SDS011;63319;46.046;17.802;2023-05-10T08:27:55;6.80;;;2.50;;
74791;SDS011;63319;46.046;17.802;2023-05-10T08:30:58;9.38;;;2.45;;
74791;SDS011;63319;46.046;17.802;2023-05-10T08:34:01;7.17;;;2.97;;
74791;SDS011;63319;46.046;17.802;2023-05-10T08:37:04;6.72;;;2.67;;
74791;SDS011;63319;46.046;17.802;2023-05-10T08:40:07;5.03;;;2.40;;
74791;SDS011;63319;46.046;17.802;2023-05-10T08:43:13;6.55;;;2.25;;
74791;SDS011;63319;46.046;17.802;2023-05-10T08:46:19;5.07;;;2.63;;
74791;SDS011;63319;46.046;17.802;2023-05-10T08:49:22;7.10;;;3.17;;
74791;SDS011;63319;46.046;17.802;2023-05-10T08:52:29;7.78;;;2.83;;
74791;SDS011;63319;46.046;17.802;2023-05-10T08:55:37;10.65;;;2.40;;
74791;SDS011;63319;46.046;17.802;2023-05-10T08:58:41;5.85;;;2.88;;
74791;SDS011;63319;46.046;17.802;2023-05-10T09:01:44;6.22;;;2.70;;
74791;SDS011;63319;46.046;17.802;2023-05-10T09:04:48;9.40;;;2.63;;
74791;SDS011;63319;46.046;17.802;2023-05-10T09:07:51;8.52;;;3.28;;
74791;SDS011;63319;46.046;17.802;2023-05-10T09:10:54;8.10;;;2.70;;
74791;SDS011;63319;46.046;17.802;2023-05-10T09:13:57;6.30;;;2.65;;
74791;SDS011;63319;46.046;17.802;2023-05-10T09:17:00;7.15;;;2.90;;
74791;SDS011;63319;46.046;17.802;2023-05-10T09:20:03;7.67;;;2.33;;
74791;SDS011;63319;46.046;17.802;2023-05-10T09:23:07;7.60;;;2.50;;
74791;SDS011;63319;46.046;17.802;2023-05-10T09:26:10;8.45;;;2.67;;
74791;SDS011;63319;46.046;17.802;2023-05-10T09:29:13;4.50;;;2.33;;
74791;SDS011;63319;46.046;17.802;2023-05-10T09:32:18;5.25;;;2.28;;
74791;SDS011;63319;46.046;17.802;2023-05-10T09:35:24;8.27;;;2.70;;
74791;SDS011;63319;46.046;17.802;2023-05-10T09:38:33;7.30;;;2.70;;
74791;SDS011;63319;46.046;17.802;2023-05-10T09:41:47;8.07;;;3.03;;
74791;SDS011;63319;46.046;17.802;2023-05-10T09:44:50;10.95;;;3.05;;
74791;SDS011;63319;46.046;17.802;2023-05-10T09:47:53;9.48;;;3.00;;
74791;SDS011;63319;46.046;17.802;2023-05-10T09:50:57;4.70;;;2.53;;
74791;SDS011;63319;46.046;17.802;2023-05-10T09:57:20;5.18;;;2.55;;
74791;SDS011;63319;46.046;17.802;2023-05-10T10:00:24;7.60;;;2.88;;
74791;SDS011;63319;46.046;17.802;2023-05-10T10:03:27;8.40;;;2.92;;
74791;SDS011;63319;46.046;17.802;2023-05-10T10:06:35;6.27;;;3.00;;
74791;SDS011;63319;46.046;17.802;2023-05-10T10:09:39;8.25;;;2.80;;
74791;SDS011;63319;46.046;17.802;2023-05-10T10:12:43;7.63;;;2.65;;
74791;SDS011;63319;46.046;17.802;2023-05-10T10:15:47;6.38;;;2.47;;
74791;SDS011;63319;46.046;17.802;2023-05-10T10:18:54;5.72;;;2.55;;
74791;SDS011;63319;46.046;17.802;2023-05-10T10:21:58;5.40;;;2.60;;
74791;SDS011;63319;46.046;17.802;2023-05-10T10:25:04;6.53;;;3.00;;
74791;SDS011;63319;46.046;17.802;2023-05-10T10:31:34;6.35;;;3.08;;
74791;SDS011;63319;46.046;17.802;2023-05-10T10:34:43;8.63;;;3.05;;
74791;SDS011;63319;46.046;17.802;2023-05-10T10:37:48;5.03;;;2.50;;
74791;SDS011;63319;46.046;17.802;2023-05-10T10:41:02;6.68;;;2.80;;
74791;SDS011;63319;46.046;17.802;2023-05-10T10:47:33;6.40;;;3.22;;
74791;SDS011;63319;46.046;17.802;2023-05-10T10:50:45;6.63;;;2.60;;
74791;SDS011;63319;46.046;17.802;2023-05-10T10:53:50;4.50;;;2.40;;
74791;SDS011;63319;46.046;17.802;2023-05-10T10:57:11;6.88;;;2.60;;
74791;SDS011;63319;46.046;17.802;2023-05-10T11:03:34;6.50;;;2.90;;
74791;SDS011;63319;46.046;17.802;2023-05-10T11:06:36;7.28;;;3.17;;
74791;SDS011;63319;46.046;17.802;2023-05-10T11:09:39;6.83;;;2.40;;
74791;SDS011;63319;46.046;17.802;2023-05-10T11:19:27;8.18;;;2.70;;
74791;SDS011;63319;46.046;17.802;2023-05-10T11:22:30;7.25;;;2.53;;
74791;SDS011;63319;46.046;17.802;2023-05-10T11:25:53;5.10;;;2.50;;
74791;SDS011;63319;46.046;17.802;2023-05-10T11:28:56;5.45;;;2.05;;
74791;SDS011;63319;46.046;17.802;2023-05-10T11:32:00;7.20;;;2.17;;
74791;SDS011;63319;46.046;17.802;2023-05-10T11:35:07;7.95;;;2.33;;
74791;SDS011;63319;46.046;17.802;2023-05-10T11:38:11;5.82;;;2.20;;
74791;SDS011;63319;46.046;17.802;2023-05-10T11:41:15;6.07;;;2.33;;
74791;SDS011;63319;46.046;17.802;2023-05-10T11:44:20;6.15;;;2.10;;
74791;SDS011;63319;46.046;17.802;2023-05-10T11:47:22;11.07;;;2.53;;
74791;SDS011;63319;46.046;17.802;2023-05-10T11:50:25;10.25;;;3.42;;
74791;SDS011;63319;46.046;17.802;2023-05-10T11:53:31;10.65;;;2.72;;
74791;SDS011;63319;46.046;17.802;2023-05-10T11:56:36;8.23;;;2.77;;
74791;SDS011;63319;46.046;17.802;2023-05-10T11:59:39;10.52;;;3.00;;
74791;SDS011;63319;46.046;17.802;2023-05-10T12:02:44;10.95;;;3.13;;
74791;SDS011;63319;46.046;17.802;2023-05-10T12:05:47;9.43;;;2.22;;
74791;SDS011;63319;46.046;17.802;2023-05-10T12:08:50;10.27;;;2.85;;
74791;SDS011;63319;46.046;17.802;2023-05-10T12:11:56;6.03;;;2.73;;
74791;SDS011;63319;46.046;17.802;2023-05-10T12:15:02;10.65;;;2.35;;
74791;SDS011;63319;46.046;17.802;2023-05-10T12:18:05;9.02;;;2.33;;
74791;SDS011;63319;46.046;17.802;2023-05-10T12:21:10;7.35;;;2.65;;
74791;SDS011;63319;46.046;17.802;2023-05-10T12:24:14;6.97;;;2.60;;
74791;SDS011;63319;46.046;17.802;2023-05-10T12:27:20;10.17;;;2.60;;
74791;SDS011;63319;46.046;17.802;2023-05-10T12:30:44;8.77;;;2.38;;
74791;SDS011;63319;46.046;17.802;2023-05-10T12:33:47;6.82;;;2.63;;
74791;SDS011;63319;46.046;17.802;2023-05-10T12:36:51;7.03;;;2.50;;
74791;SDS011;63319;46.046;17.802;2023-05-10T12:39:55;6.57;;;2.83;;
74791;SDS011;63319;46.046;17.802;2023-05-10T12:42:58;5.23;;;2.47;;
74791;SDS011;63319;46.046;17.802;2023-05-10T12:46:10;5.65;;;1.95;;
74791;SDS011;63319;46.046;17.802;2023-05-10T12:49:14;5.82;;;2.22;;
74791;SDS011;63319;46.046;17.802;2023-05-10T12:52:17;7.60;;;2.03;;
74791;SDS011;63319;46.046;17.802;2023-05-10T12:55:19;7.38;;;2.33;;
74791;SDS011;63319;46.046;17.802;2023-05-10T12:58:22;9.90;;;2.77;;
74791;SDS011;63319;46.046;17.802;2023-05-10T13:01:37;4.13;;;2.13;;
74791;SDS011;63319;46.046;17.802;2023-05-10T13:04:40;5.32;;;2.50;;
74791;SDS011;63319;46.046;17.802;2023-05-10T13:07:44;5.13;;;2.00;;
74791;SDS011;63319;46.046;17.802;2023-05-10T13:10:46;6.70;;;2.25;;
74791;SDS011;63319;46.046;17.802;2023-05-10T13:13:49;6.90;;;2.27;;
74791;SDS011;63319;46.046;17.802;2023-05-10T13:16:52;5.93;;;2.10;;
74791;SDS011;63319;46.046;17.802;2023-05-10T13:19:54;6.05;;;2.22;;
74791;SDS011;63319;46.046;17.802;2023-05-10T13:22:57;7.25;;;2.50;;
74791;SDS011;63319;46.046;17.802;2023-05-10T13:26:00;5.97;;;1.75;;
74791;SDS011;63319;46.046;17.802;2023-05-10T13:29:06;5.80;;;2.33;;
74791;SDS011;63319;46.046;17.802;2023-05-10T13:32:09;4.72;;;2.17;;
74791;SDS011;63319;46.046;17.802;2023-05-10T13:35:15;6.45;;;2.10;;
74791;SDS011;63319;46.046;17.802;2023-05-10T13:38:18;5.47;;;2.50;;
74791;SDS011;63319;46.046;17.802;2023-05-10T13:41:23;7.22;;;2.42;;
74791;SDS011;63319;46.046;17.802;2023-05-10T13:44:26;4.60;;;1.93;;
74791;SDS011;63319;46.046;17.802;2023-05-10T13:47:29;4.03;;;1.83;;
74791;SDS011;63319;46.046;17.802;2023-05-10T13:50:32;4.68;;;2.47;;
74791;SDS011;63319;46.046;17.802;2023-05-10T13:53:35;7.10;;;2.28;;
74791;SDS011;63319;46.046;17.802;2023-05-10T13:56:37;6.90;;;2.55;;
74791;SDS011;63319;46.046;17.802;2023-05-10T13:59:40;4.73;;;1.90;;
74791;SDS011;63319;46.046;17.802;2023-05-10T14:02:43;4.70;;;2.30;;
74791;SDS011;63319;46.046;17.802;2023-05-10T14:05:46;6.35;;;2.28;;
74791;SDS011;63319;46.046;17.802;2023-05-10T14:08:54;5.72;;;2.47;;
74791;SDS011;63319;46.046;17.802;2023-05-10T14:11:57;5.32;;;2.20;;
74791;SDS011;63319;46.046;17.802;2023-05-10T14:15:00;5.33;;;1.90;;
74791;SDS011;63319;46.046;17.802;2023-05-10T14:18:04;4.63;;;2.08;;
74791;SDS011;63319;46.046;17.802;2023-05-10T14:21:07;5.03;;;2.05;;
74791;SDS011;63319;46.046;17.802;2023-05-10T14:24:09;4.82;;;2.10;;
74791;SDS011;63319;46.046;17.802;2023-05-10T14:27:12;4.45;;;2.00;;
74791;SDS011;63319;46.046;17.802;2023-05-10T14:30:15;5.57;;;2.10;;
74791;SDS011;63319;46.046;17.802;2023-05-10T14:33:18;5.13;;;2.17;;
74791;SDS011;63319;46.046;17.802;2023-05-10T14:36:21;4.25;;;1.88;;
74791;SDS011;63319;46.046;17.802;2023-05-10T14:39:24;5.88;;;2.17;;
74791;SDS011;63319;46.046;17.802;2023-05-10T14:42:27;5.47;;;2.08;;
74791;SDS011;63319;46.046;17.802;2023-05-10T14:45:30;5.83;;;2.00;;
74791;SDS011;63319;46.046;17.802;2023-05-10T14:48:33;4.78;;;1.98;;
74791;SDS011;63319;46.046;17.802;2023-05-10T14:51:36;4.82;;;2.05;;
74791;SDS011;63319;46.046;17.802;2023-05-10T14:54:39;4.10;;;2.00;;
74791;SDS011;63319;46.046;17.802;2023-05-10T14:57:42;4.00;;;1.90;;
74791;SDS011;63319;46.046;17.802;2023-05-10T15:00:46;5.27;;;1.70;;
74791;SDS011;63319;46.046;17.802;2023-05-10T15:03:49;3.83;;;1.80;;
74791;SDS011;63319;46.046;17.802;2023-05-10T15:06:53;4.43;;;1.80;;
74791;SDS011;63319;46.046;17.802;2023-05-10T15:10:01;4.68;;;1.75;;
74791;SDS011;63319;46.046;17.802;2023-05-10T15:13:04;3.83;;;1.98;;
74791;SDS011;63319;46.046;17.802;2023-05-10T15:16:07;4.10;;;1.87;;
74791;SDS011;63319;46.046;17.802;2023-05-10T15:19:10;4.03;;;1.70;;
74791;SDS011;63319;46.046;17.802;2023-05-10T15:22:12;4.03;;;2.00;;
74791;SDS011;63319;46.046;17.802;2023-05-10T15:25:15;4.95;;;2.10;;
74791;SDS011;63319;46.046;17.802;2023-05-10T15:28:18;4.30;;;2.13;;
74791;SDS011;63319;46.046;17.802;2023-05-10T15:31:21;3.77;;;1.80;;
74791;SDS011;63319;46.046;17.802;2023-05-10T15:34:24;3.30;;;1.65;;
74791;SDS011;63319;46.046;17.802;2023-05-10T15:37:26;4.28;;;2.08;;
74791;SDS011;63319;46.046;17.802;2023-05-10T15:40:29;3.83;;;1.67;;
74791;SDS011;63319;46.046;17.802;2023-05-10T15:43:32;4.10;;;2.00;;
74791;SDS011;63319;46.046;17.802;2023-05-10T15:46:39;4.07;;;1.70;;
74791;SDS011;63319;46.046;17.802;2023-05-10T15:49:42;3.38;;;1.60;;
74791;SDS011;63319;46.046;17.802;2023-05-10T15:52:45;4.25;;;1.77;;
74791;SDS011;63319;46.046;17.802;2023-05-10T15:55:47;5.72;;;1.95;;
74791;SDS011;63319;46.046;17.802;2023-05-10T15:58:50;3.42;;;1.70;;
74791;SDS011;63319;46.046;17.802;2023-05-10T16:01:53;4.00;;;1.80;;
74791;SDS011;63319;46.046;17.802;2023-05-10T16:04:56;4.90;;;2.38;;
74791;SDS011;63319;46.046;17.802;2023-05-10T16:07:59;3.80;;;1.83;;
74791;SDS011;63319;46.046;17.802;2023-05-10T16:11:03;4.60;;;1.65;;
74791;SDS011;63319;46.046;17.802;2023-05-10T16:14:05;3.60;;;1.80;;
74791;SDS011;63319;46.046;17.802;2023-05-10T16:17:08;4.00;;;2.00;;
74791;SDS011;63319;46.046;17.802;2023-05-10T16:20:11;3.70;;;1.70;;
74791;SDS011;63319;46.046;17.802;2023-05-10T16:23:14;4.25;;;1.92;;
74791;SDS011;63319;46.046;17.802;2023-05-10T16:26:16;2.95;;;1.50;;
74791;SDS011;63319;46.046;17.802;2023-05-10T16:29:19;3.35;;;1.60;;
74791;SDS011;63319;46.046;17.802;2023-05-10T16:32:22;5.67;;;1.97;;
74791;SDS011;63319;46.046;17.802;2023-05-10T16:35:25;4.55;;;1.95;;
74791;SDS011;63319;46.046;17.802;2023-05-10T16:38:33;3.85;;;2.20;;
74791;SDS011;63319;46.046;17.802;2023-05-10T16:41:36;4.32;;;1.67;;
74791;SDS011;63319;46.046;17.802;2023-05-10T16:44:39;2.85;;;1.45;;
74791;SDS011;63319;46.046;17.802;2023-05-10T16:47:41;3.23;;;1.47;;
74791;SDS011;63319;46.046;17.802;2023-05-10T16:50:44;3.22;;;1.42;;
74791;SDS011;63319;46.046;17.802;2023-05-10T16:53:47;3.25;;;1.73;;
74791;SDS011;63319;46.046;17.802;2023-05-10T16:56:49;4.03;;;1.85;;
74791;SDS011;63319;46.046;17.802;2023-05-10T16:59:52;4.55;;;1.80;;
74791;SDS011;63319;46.046;17.802;2023-05-10T17:02:55;4.53;;;1.90;;
74791;SDS011;63319;46.046;17.802;2023-05-10T17:05:58;3.58;;;1.90;;
74791;SDS011;63319;46.046;17.802;2023-05-10T17:09:01;3.40;;;1.70;;
74791;SDS011;63319;46.046;17.802;2023-05-10T17:12:05;3.95;;;2.28;;
74791;SDS011;63319;46.046;17.802;2023-05-10T17:15:08;5.70;;;1.85;;
74791;SDS011;63319;46.046;17.802;2023-05-10T17:18:11;4.63;;;1.50;;
74791;SDS011;63319;46.046;17.802;2023-05-10T17:21:14;3.95;;;1.92;;
74791;SDS011;63319;46.046;17.802;2023-05-10T17:24:17;4.07;;;1.80;;
74791;SDS011;63319;46.046;17.802;2023-05-10T17:27:20;3.28;;;1.63;;
74791;SDS011;63319;46.046;17.802;2023-05-10T17:30:23;3.95;;;1.85;;
74791;SDS011;63319;46.046;17.802;2023-05-10T17:33:28;6.00;;;1.80;;
74791;SDS011;63319;46.046;17.802;2023-05-10T17:36:31;3.85;;;2.00;;
74791;SDS011;63319;46.046;17.802;2023-05-10T17:39:34;3.53;;;1.63;;
74791;SDS011;63319;46.046;17.802;2023-05-10T17:42:40;3.95;;;1.80;;
74791;SDS011;63319;46.046;17.802;2023-05-10T17:45:45;4.47;;;2.00;;
74791;SDS011;63319;46.046;17.802;2023-05-10T17:48:50;4.47;;;1.73;;
74791;SDS011;63319;46.046;17.802;2023-05-10T17:51:53;3.55;;;1.70;;
74791;SDS011;63319;46.046;17.802;2023-05-10T17:54:56;3.85;;;1.98;;
74791;SDS011;63319;46.046;17.802;2023-05-10T17:57:59;4.35;;;1.60;;
74791;SDS011;63319;46.046;17.802;2023-05-10T18:01:02;3.90;;;1.75;;
74791;SDS011;63319;46.046;17.802;2023-05-10T18:04:05;2.97;;;1.40;;
74791;SDS011;63319;46.046;17.802;2023-05-10T18:07:09;4.35;;;1.80;;
74791;SDS011;63319;46.046;17.802;2023-05-10T18:10:11;3.20;;;1.77;;
74791;SDS011;63319;46.046;17.802;2023-05-10T18:13:14;4.07;;;1.90;;
74791;SDS011;63319;46.046;17.802;2023-05-10T18:16:18;3.40;;;1.80;;
74791;SDS011;63319;46.046;17.802;2023-05-10T18:19:21;4.03;;;1.80;;
74791;SDS011;63319;46.046;17.802;2023-05-10T18:22:26;4.30;;;1.83;;
74791;SDS011;63319;46.046;17.802;2023-05-10T18:25:29;3.60;;;1.80;;
74791;SDS011;63319;46.046;17.802;2023-05-10T18:28:32;3.35;;;1.65;;
74791;SDS011;63319;46.046;17.802;2023-05-10T18:31:36;4.47;;;2.10;;
74791;SDS011;63319;46.046;17.802;2023-05-10T18:34:40;3.73;;;1.83;;
74791;SDS011;63319;46.046;17.802;2023-05-10T18:37:43;3.15;;;1.50;;
74791;SDS011;63319;46.046;17.802;2023-05-10T18:40:47;4.57;;;2.30;;
74791;SDS011;63319;46.046;17.802;2023-05-10T18:43:52;4.15;;;1.90;;
74791;SDS011;63319;46.046;17.802;2023-05-10T18:46:56;3.20;;;1.77;;
74791;SDS011;63319;46.046;17.802;2023-05-10T18:50:02;3.70;;;1.80;;
74791;SDS011;63319;46.046;17.802;2023-05-10T18:53:07;3.63;;;1.80;;